createdAt,value
2023-02-12T00:01:22.984Z,76.45
2023-02-12T00:03:51.277Z,86.97
2023-02-12T00:06:20.404Z,72.57
2023-02-12T00:08:54.155Z,73.05
2023-02-12T00:11:25.792Z,69.10
2023-02-12T00:13:54.269Z,73.68
2023-02-12T00:16:23.597Z,73.47
2023-02-12T00:18:55.538Z,70.20
2023-02-12T00:21:23.957Z,70.57
2023-02-12T00:23:51.989Z,71.95
2023-02-12T00:26:20.768Z,69.88
2023-02-12T00:28:51.172Z,75.57
2023-02-12T00:31:21.979Z,75.50
2023-02-12T00:34:00.860Z,82.43
2023-02-12T00:36:31.025Z,70.05
2023-02-12T00:39:00.936Z,67.97
2023-02-12T00:41:39.976Z,65.75
2023-02-12T00:44:11.386Z,76.13
2023-02-12T00:46:39.157Z,68.60
2023-02-12T00:49:07.140Z,70.88
2023-02-12T00:51:35.436Z,78.90
2023-02-12T00:54:03.723Z,74.55
2023-02-12T00:56:32.123Z,78.97
2023-02-12T00:59:00.110Z,81.80
2023-02-12T01:01:27.899Z,78.28
2023-02-12T01:03:55.795Z,71.55
2023-02-12T01:06:23.676Z,63.80
2023-02-12T01:08:52.772Z,72.72
2023-02-12T01:11:20.966Z,65.18
2023-02-12T01:13:49.776Z,63.50
2023-02-12T01:16:22.933Z,62.15
2023-02-12T01:18:53.174Z,61.13
2023-02-12T01:21:24.700Z,72.15
2023-02-12T01:23:52.835Z,68.15
2023-02-12T01:26:20.873Z,77.00
2023-02-12T01:28:53.210Z,67.65
2023-02-12T01:31:23.382Z,68.97
2023-02-12T01:33:53.561Z,68.03
2023-02-12T01:36:22.110Z,65.80
2023-02-12T01:38:50.453Z,72.30
2023-02-12T01:41:20.818Z,72.93
2023-02-12T01:44:06.750Z,64.57
2023-02-12T01:46:34.676Z,64.38
2023-02-12T01:49:03.930Z,69.05
2023-02-12T01:51:32.550Z,63.85
2023-02-12T01:54:02.878Z,69.47
2023-02-12T01:56:31.249Z,73.60
2023-02-12T01:58:59.331Z,66.15
2023-02-12T02:01:29.222Z,66.72
2023-02-12T02:04:00.566Z,70.60
2023-02-12T02:06:36.191Z,62.10
2023-02-12T02:09:04.305Z,68.75
2023-02-12T02:11:51.831Z,66.88
2023-02-12T02:14:35.408Z,63.22
2023-02-12T02:17:12.439Z,66.15
2023-02-12T02:20:00.090Z,62.55
2023-02-12T02:22:27.998Z,63.22
2023-02-12T02:25:04.957Z,60.97
2023-02-12T02:27:32.959Z,64.22
2023-02-12T02:30:20.830Z,68.53
2023-02-12T02:32:56.895Z,63.03
2023-02-12T02:35:27.880Z,61.22
2023-02-12T02:37:55.666Z,66.90
2023-02-12T02:40:25.226Z,59.58
2023-02-12T02:42:56.151Z,65.38
2023-02-12T02:45:30.190Z,63.45
2023-02-12T02:48:03.327Z,61.05
2023-02-12T02:50:32.845Z,64.97
2023-02-12T02:53:03.061Z,63.83
2023-02-12T02:55:33.316Z,61.60
2023-02-12T02:58:12.944Z,60.47
2023-02-12T03:00:42.756Z,60.72
2023-02-12T03:03:19.056Z,67.03
2023-02-12T03:05:50.679Z,64.88
2023-02-12T03:08:24.429Z,67.82
2023-02-12T03:11:01.549Z,63.10
2023-02-12T03:13:33.332Z,69.13
2023-02-12T03:16:03.939Z,62.92
2023-02-12T03:18:35.069Z,68.07
2023-02-12T03:21:05.837Z,69.75
2023-02-12T03:23:38.484Z,63.42
2023-02-12T03:26:12.254Z,67.78
2023-02-12T03:28:40.813Z,61.95
2023-02-12T03:31:16.417Z,62.28
2023-02-12T03:34:03.325Z,65.13
2023-02-12T03:36:47.334Z,66.43
2023-02-12T03:39:20.490Z,56.63
2023-02-12T03:41:56.978Z,68.82
2023-02-12T03:44:35.515Z,70.10
2023-02-12T03:47:17.308Z,74.55
2023-02-12T03:50:00.593Z,67.30
2023-02-12T03:54:56.085Z,66.32
2023-02-12T03:57:30.815Z,65.68
2023-02-12T03:59:59.516Z,65.53
2023-02-12T04:02:27.732Z,64.47
2023-02-12T04:04:55.493Z,72.78
2023-02-12T04:07:23.555Z,67.55
2023-02-12T04:09:51.307Z,67.32
2023-02-12T04:12:24.718Z,66.22
2023-02-12T04:15:19.337Z,71.60
2023-02-12T04:17:50.196Z,68.00
2023-02-12T04:20:21.204Z,67.50
2023-02-12T04:22:55.049Z,76.38
2023-02-12T04:25:33.458Z,76.60
2023-02-12T04:28:11.353Z,64.70
2023-02-12T04:30:47.380Z,68.35
2023-02-12T04:33:19.248Z,66.45
2023-02-12T04:35:52.288Z,64.35
2023-02-12T04:40:48.688Z,69.20
2023-02-12T04:43:26.512Z,71.22
2023-02-12T04:45:54.620Z,76.90
2023-02-12T04:48:23.739Z,76.53
2023-02-12T04:50:51.520Z,73.03
2023-02-12T04:53:19.450Z,73.82
2023-02-12T04:55:47.833Z,72.72
2023-02-12T04:58:15.867Z,72.50
2023-02-12T05:00:43.609Z,75.82
2023-02-12T05:03:11.591Z,67.93
2023-02-12T05:05:39.398Z,74.35
2023-02-12T05:08:07.367Z,83.93
2023-02-12T05:10:35.199Z,74.63
2023-02-12T05:13:03.150Z,72.25
2023-02-12T05:15:31.059Z,74.05
2023-02-12T05:17:58.858Z,78.72
2023-02-12T05:20:26.753Z,74.78
2023-02-12T05:22:54.742Z,71.03
2023-02-12T05:25:22.843Z,70.95
2023-02-12T05:27:50.776Z,70.80
2023-02-12T05:30:18.632Z,71.63
2023-02-12T05:32:46.563Z,78.20
2023-02-12T05:35:14.410Z,71.78
2023-02-12T05:37:42.446Z,69.68
2023-02-12T05:40:10.465Z,74.13
2023-02-12T05:42:38.448Z,69.20
2023-02-12T05:45:06.449Z,72.78
2023-02-12T05:47:34.346Z,79.18
2023-02-12T05:50:02.172Z,70.43
2023-02-12T05:52:30.096Z,70.15
2023-02-12T05:54:57.837Z,69.13
2023-02-12T05:57:25.820Z,66.78
2023-02-12T05:59:53.712Z,65.65
2023-02-12T06:02:21.649Z,79.88
2023-02-12T06:04:49.390Z,92.05
2023-02-12T06:07:17.277Z,74.15
2023-02-12T06:09:45.143Z,69.57
2023-02-12T06:12:13.048Z,61.50
2023-02-12T06:14:41.633Z,68.68
2023-02-12T06:17:09.607Z,68.53
2023-02-12T06:19:37.543Z,67.32
2023-02-12T06:22:05.631Z,75.28
2023-02-12T06:24:33.465Z,73.53
2023-02-12T06:27:01.428Z,81.75
2023-02-12T06:29:29.509Z,73.85
2023-02-12T06:31:57.554Z,72.68
2023-02-12T06:34:25.358Z,69.15
2023-02-12T06:36:53.322Z,68.13
2023-02-12T06:39:21.153Z,74.30
2023-02-12T06:41:49.050Z,69.47
2023-02-12T06:44:16.899Z,68.13
2023-02-12T06:46:44.753Z,76.13
2023-02-12T06:49:14.488Z,78.13
2023-02-12T06:51:42.422Z,77.45
2023-02-12T06:54:17.423Z,75.93
2023-02-12T06:56:45.525Z,80.40
2023-02-12T06:59:15.433Z,81.30
2023-02-12T07:01:43.234Z,104.25
2023-02-12T07:04:11.734Z,99.45
2023-02-12T07:06:39.553Z,85.45
2023-02-12T07:09:08.456Z,78.85
2023-02-12T07:11:38.435Z,72.97
2023-02-12T07:14:07.244Z,64.07
2023-02-12T07:16:35.411Z,73.57
2023-02-12T07:19:03.223Z,70.65
2023-02-12T07:21:32.225Z,74.65
2023-02-12T07:24:00.273Z,64.45
2023-02-12T07:26:28.230Z,68.28
2023-02-12T07:28:57.513Z,80.50
2023-02-12T07:31:25.829Z,75.90
2023-02-12T07:33:58.161Z,74.57
2023-02-12T07:36:27.289Z,72.77
2023-02-12T07:38:55.893Z,75.78
2023-02-12T07:41:29.340Z,83.00
2023-02-12T07:44:10.261Z,78.70
2023-02-12T07:46:42.933Z,86.70
2023-02-12T07:49:15.984Z,85.05
2023-02-12T07:51:44.012Z,71.13
2023-02-12T07:54:12.659Z,70.85
2023-02-12T07:56:41.392Z,68.90
2023-02-12T07:59:11.644Z,63.53
2023-02-12T08:01:40.773Z,54.67
2023-02-12T08:04:11.438Z,59.13
2023-02-12T08:06:41.281Z,58.58
2023-02-12T08:09:10.204Z,55.05
2023-02-12T08:11:38.459Z,59.05
2023-02-12T08:14:06.322Z,58.22
2023-02-12T08:16:37.820Z,49.67
2023-02-12T08:19:17.531Z,73.40
2023-02-12T08:21:47.787Z,61.45
2023-02-12T08:24:15.645Z,65.22
2023-02-12T08:26:44.405Z,63.67
2023-02-12T08:29:15.959Z,61.42
2023-02-12T08:31:48.340Z,60.85
2023-02-12T08:34:18.140Z,46.85
2023-02-12T08:36:46.246Z,59.33
2023-02-12T08:39:14.775Z,57.10
2023-02-12T08:41:42.758Z,54.25
2023-02-12T08:44:11.461Z,76.32
2023-02-12T08:46:46.973Z,63.13
2023-02-12T08:49:17.174Z,58.42
2023-02-12T08:51:46.839Z,58.47
2023-02-12T08:54:15.254Z,56.33
2023-02-12T08:56:45.353Z,58.55
2023-02-12T08:59:14.270Z,56.65
2023-02-12T09:01:42.981Z,68.80
2023-02-12T09:04:17.974Z,70.20
2023-02-12T09:06:47.547Z,60.55
2023-02-12T09:09:23.304Z,58.30
2023-02-12T09:11:51.388Z,52.88
2023-02-12T09:14:26.349Z,53.97
2023-02-12T09:16:54.660Z,57.67
2023-02-12T09:19:22.816Z,52.28
2023-02-12T09:21:59.120Z,57.13
2023-02-12T09:24:29.041Z,56.50
2023-02-12T09:26:57.259Z,53.92
2023-02-12T09:29:25.274Z,64.10
2023-02-12T09:31:53.379Z,58.30
2023-02-12T09:34:21.512Z,58.78
2023-02-12T09:36:49.569Z,54.38
2023-02-12T09:39:17.381Z,86.38
2023-02-12T09:41:51.861Z,60.53
2023-02-12T09:44:22.882Z,56.88
2023-02-12T09:46:54.534Z,59.25
2023-02-12T09:49:32.029Z,59.20
2023-02-12T09:52:00.655Z,54.10
2023-02-12T09:54:35.048Z,59.40
2023-02-12T09:57:05.939Z,68.20
2023-02-12T09:59:33.754Z,79.13
2023-02-12T10:02:01.694Z,58.15
2023-02-12T10:04:29.838Z,80.07
2023-02-12T10:07:14.761Z,57.08
2023-02-12T10:10:01.135Z,86.00
2023-02-12T10:12:36.857Z,59.95
2023-02-12T10:15:16.025Z,50.70
2023-02-12T10:17:48.695Z,53.08
2023-02-12T10:20:26.770Z,50.50
2023-02-12T10:23:00.664Z,50.30
2023-02-12T10:25:31.629Z,49.60
2023-02-12T10:28:02.320Z,51.63
2023-02-12T10:30:56.666Z,53.58
2023-02-12T10:33:24.594Z,55.75
2023-02-12T10:35:55.513Z,54.13
2023-02-12T10:38:27.554Z,48.47
2023-02-12T10:40:57.999Z,57.30
2023-02-12T10:43:25.813Z,50.40
2023-02-12T10:45:54.055Z,51.25
2023-02-12T10:48:32.404Z,48.22
2023-02-12T10:51:03.811Z,49.55
2023-02-12T10:53:39.356Z,49.85
2023-02-12T10:56:13.481Z,55.42
2023-02-12T10:58:43.580Z,53.92
2023-02-12T11:01:27.230Z,53.53
2023-02-12T11:03:56.156Z,48.00
2023-02-12T11:06:25.965Z,49.33
2023-02-12T11:09:06.868Z,54.78
2023-02-12T11:11:39.588Z,56.60
2023-02-12T11:14:11.061Z,57.53
2023-02-12T11:16:41.130Z,50.80
2023-02-12T11:19:09.966Z,51.67
2023-02-12T11:21:37.768Z,61.55
2023-02-12T11:24:24.500Z,73.30
2023-02-12T11:26:52.988Z,56.15
2023-02-12T11:29:25.939Z,58.28
2023-02-12T11:32:05.874Z,49.25
2023-02-12T11:34:34.238Z,44.05
2023-02-12T11:37:02.782Z,49.72
2023-02-12T11:39:35.464Z,49.88
2023-02-12T11:42:06.214Z,45.55
2023-02-12T11:44:39.034Z,60.60
2023-02-12T11:47:12.229Z,56.50
2023-02-12T11:49:44.151Z,46.83
2023-02-12T11:52:23.649Z,46.90
2023-02-12T11:54:53.406Z,49.95
2023-02-12T11:57:50.889Z,45.85
2023-02-12T12:00:19.152Z,49.22
2023-02-12T12:02:57.129Z,47.10
2023-02-12T12:05:27.173Z,49.45
2023-02-12T12:07:57.867Z,50.78
2023-02-12T12:10:43.407Z,48.20
2023-02-12T12:13:13.997Z,43.58
2023-02-12T12:16:03.997Z,46.63
2023-02-12T12:18:58.267Z,53.05
2023-02-12T12:21:26.506Z,51.25
2023-02-12T12:23:57.968Z,52.17
2023-02-12T12:26:30.304Z,47.53
2023-02-12T12:29:07.335Z,46.90
2023-02-12T12:31:35.358Z,56.85
2023-02-12T12:34:22.000Z,50.22
2023-02-12T12:37:05.202Z,58.22
2023-02-12T12:39:53.337Z,53.13
2023-02-12T12:42:28.457Z,53.17
2023-02-12T12:44:56.307Z,52.00
2023-02-12T12:47:24.193Z,55.25
2023-02-12T12:50:10.176Z,57.10
2023-02-12T12:52:41.167Z,53.50
2023-02-12T12:55:15.289Z,56.22
2023-02-12T12:57:44.385Z,51.40
2023-02-12T13:00:30.985Z,47.92
2023-02-12T13:03:02.027Z,48.63
2023-02-12T13:05:50.196Z,43.25
2023-02-12T13:08:25.103Z,42.03
2023-02-12T13:11:03.102Z,41.78
2023-02-12T13:13:30.892Z,35.88
2023-02-12T13:16:11.085Z,37.85
2023-02-12T13:18:42.010Z,32.72
2023-02-12T13:21:16.977Z,29.13
2023-02-12T13:23:44.780Z,26.02
2023-02-12T13:26:17.812Z,27.35
2023-02-12T13:28:51.797Z,24.10
2023-02-12T13:31:33.127Z,23.70
2023-02-12T13:34:03.411Z,24.50
2023-02-12T13:36:31.243Z,27.65
2023-02-12T13:38:59.095Z,20.90
2023-02-12T13:41:27.326Z,22.23
2023-02-12T13:43:58.249Z,22.00
2023-02-12T13:46:32.160Z,18.85
2023-02-12T13:49:10.983Z,17.40
2023-02-12T13:51:38.756Z,22.02
2023-02-12T13:54:12.845Z,20.83
2023-02-12T13:56:45.780Z,21.45
2023-02-12T13:59:36.474Z,22.85
2023-02-12T14:02:24.566Z,23.77
2023-02-12T14:05:03.025Z,23.52
2023-02-12T14:07:46.137Z,21.27
2023-02-12T14:10:25.048Z,21.08
2023-02-12T14:12:54.064Z,23.13
2023-02-12T14:15:29.369Z,25.70
2023-02-12T14:18:05.601Z,24.35
2023-02-12T14:20:34.740Z,23.90
2023-02-12T14:23:22.893Z,29.10
2023-02-12T14:25:57.890Z,29.17
2023-02-12T14:28:29.235Z,26.42
2023-02-12T14:31:19.615Z,29.48
2023-02-12T14:33:52.690Z,28.75
2023-02-12T14:36:26.156Z,28.10
2023-02-12T14:38:58.946Z,25.10
2023-02-12T14:42:01.955Z,26.88
2023-02-12T14:44:30.811Z,27.92
2023-02-12T14:47:02.436Z,30.42
2023-02-12T14:49:49.646Z,26.48
2023-02-12T14:52:20.102Z,29.63
2023-02-12T14:55:14.313Z,25.38
2023-02-12T14:57:43.084Z,30.85
2023-02-12T15:00:17.213Z,40.90
2023-02-12T15:02:46.272Z,28.52
2023-02-12T15:05:16.544Z,29.67
2023-02-12T15:07:45.493Z,26.67
2023-02-12T15:10:19.300Z,37.60
2023-02-12T15:12:53.458Z,33.53
2023-02-12T15:15:30.975Z,47.28
2023-02-12T15:18:11.773Z,32.13
2023-02-12T15:20:46.813Z,27.02
2023-02-12T15:23:35.311Z,28.85
2023-02-12T15:26:04.472Z,27.42
2023-02-12T15:28:35.569Z,30.05
2023-02-12T15:31:04.701Z,29.50
2023-02-12T15:33:34.483Z,29.65
2023-02-12T15:36:03.731Z,29.70
2023-02-12T15:38:33.512Z,29.00
2023-02-12T15:41:02.060Z,27.25
2023-02-12T15:43:34.833Z,29.75
2023-02-12T15:46:03.691Z,27.73
2023-02-12T15:48:33.342Z,26.45
2023-02-12T15:51:07.864Z,37.10
2023-02-12T15:53:35.973Z,28.33
2023-02-12T15:56:04.102Z,30.05
2023-02-12T15:58:37.233Z,31.30
2023-02-12T16:01:06.636Z,28.58
2023-02-12T16:03:35.866Z,25.27
2023-02-12T16:06:14.143Z,24.55
2023-02-12T16:08:42.772Z,90.38
2023-02-12T16:11:14.931Z,32.83
2023-02-12T16:13:51.906Z,29.70
2023-02-12T16:16:24.944Z,27.23
2023-02-12T16:19:17.763Z,27.10
2023-02-12T16:21:47.607Z,27.90
2023-02-12T16:24:41.769Z,32.67
2023-02-12T16:27:15.932Z,28.40
2023-02-12T16:29:48.650Z,25.30
2023-02-12T16:32:35.140Z,28.15
2023-02-12T16:35:08.635Z,27.13
2023-02-12T16:37:36.463Z,29.02
2023-02-12T16:40:12.185Z,28.77
2023-02-12T16:42:56.360Z,28.80
2023-02-12T16:45:32.361Z,28.98
2023-02-12T16:48:25.254Z,24.75
2023-02-12T16:50:55.587Z,26.93
2023-02-12T16:53:35.766Z,29.52
2023-02-12T16:56:04.538Z,28.35
2023-02-12T16:58:32.724Z,29.50
2023-02-12T17:01:03.147Z,26.77
2023-02-12T17:03:31.323Z,27.90
2023-02-12T17:05:59.761Z,33.30
2023-02-12T17:08:27.839Z,29.30
2023-02-12T17:10:55.678Z,28.35
2023-02-12T17:13:23.621Z,29.45
2023-02-12T17:15:54.113Z,31.27
2023-02-12T17:18:22.433Z,31.90
2023-02-12T17:20:54.351Z,28.15
2023-02-12T17:23:22.723Z,30.65
2023-02-12T17:25:52.570Z,32.78
2023-02-12T17:28:21.298Z,29.33
2023-02-12T17:30:50.308Z,29.90
2023-02-12T17:33:23.937Z,27.10
2023-02-12T17:35:54.120Z,28.13
2023-02-12T17:38:22.831Z,27.73
2023-02-12T17:40:51.378Z,25.33
2023-02-12T17:43:19.337Z,29.00
2023-02-12T17:45:47.418Z,28.90
2023-02-12T17:48:16.142Z,27.13
2023-02-12T17:50:44.521Z,30.65
2023-02-12T17:53:13.722Z,29.88
2023-02-12T17:55:42.059Z,25.25
2023-02-12T17:58:09.822Z,30.48
2023-02-12T18:00:37.864Z,41.53
2023-02-12T18:03:05.735Z,33.35
2023-02-12T18:05:33.701Z,26.45
2023-02-12T18:08:03.643Z,27.60
2023-02-12T18:10:32.683Z,34.95
2023-02-12T18:13:01.047Z,30.40
2023-02-12T18:15:29.007Z,36.90
2023-02-12T18:17:57.122Z,73.72
2023-02-12T18:20:24.969Z,53.33
2023-02-12T18:22:52.957Z,33.88
2023-02-12T18:25:20.979Z,27.10
2023-02-12T18:27:48.831Z,39.80
2023-02-12T18:30:16.984Z,34.22
2023-02-12T18:32:44.916Z,33.88
2023-02-12T18:35:12.912Z,32.67
2023-02-12T18:37:43.245Z,27.70
2023-02-12T18:40:12.332Z,29.55
2023-02-12T18:42:40.341Z,66.00
2023-02-12T18:45:08.529Z,51.15
2023-02-12T18:47:36.558Z,39.08
2023-02-12T18:50:04.919Z,29.98
2023-02-12T18:52:32.932Z,30.00
2023-02-12T18:55:00.990Z,28.17
2023-02-12T18:57:29.908Z,28.00
2023-02-12T19:00:05.268Z,23.45
2023-02-12T19:02:44.094Z,20.98
2023-02-12T19:05:45.358Z,24.50
2023-02-12T19:08:20.607Z,21.15
2023-02-12T19:10:49.564Z,20.45
2023-02-12T19:13:17.392Z,23.85
2023-02-12T19:15:47.303Z,22.88
2023-02-12T19:18:22.862Z,21.98
2023-02-12T19:20:51.534Z,25.20
2023-02-12T19:23:19.747Z,25.00
2023-02-12T19:25:47.542Z,24.85
2023-02-12T19:28:15.542Z,29.85
2023-02-12T19:30:43.861Z,52.40
2023-02-12T19:33:16.620Z,47.92
2023-02-12T19:35:45.870Z,33.92
2023-02-12T19:38:13.788Z,29.55
2023-02-12T19:40:41.552Z,30.83
2023-02-12T19:43:11.435Z,26.77
2023-02-12T19:45:39.436Z,25.45
2023-02-12T19:48:07.251Z,25.63
2023-02-12T19:50:35.506Z,27.00
2023-02-12T19:53:03.472Z,25.92
2023-02-12T19:55:35.894Z,27.23
2023-02-12T19:58:03.672Z,21.93
2023-02-12T20:00:31.802Z,24.23
2023-02-12T20:02:59.673Z,20.58
2023-02-12T20:08:09.599Z,28.75
2023-02-12T20:10:39.923Z,26.48
2023-02-12T20:13:07.923Z,29.65
2023-02-12T20:15:39.261Z,26.00
2023-02-12T20:18:08.561Z,26.73
2023-02-12T20:20:36.971Z,25.92
2023-02-12T20:23:04.865Z,28.05
2023-02-12T20:25:32.984Z,26.35
2023-02-12T20:28:00.889Z,29.23
2023-02-12T20:30:28.831Z,29.17
2023-02-12T20:32:56.866Z,28.58
2023-02-12T20:35:24.865Z,28.67
2023-02-12T20:37:52.932Z,27.75
2023-02-12T20:40:21.190Z,30.55
2023-02-12T20:42:49.353Z,30.80
2023-02-12T20:45:17.223Z,31.35
2023-02-12T20:47:45.296Z,31.05
2023-02-12T20:50:14.431Z,28.38
2023-02-12T20:52:43.656Z,33.13
2023-02-12T20:55:12.318Z,30.95
2023-02-12T20:57:41.194Z,29.50
2023-02-12T21:00:10.601Z,37.28
2023-02-12T21:02:39.322Z,30.02
2023-02-12T21:05:11.262Z,32.47
2023-02-12T21:07:39.201Z,32.30
2023-02-12T21:10:07.813Z,33.60
2023-02-12T21:12:35.606Z,31.05
2023-02-12T21:15:03.784Z,35.25
2023-02-12T21:17:31.650Z,34.05
2023-02-12T21:20:00.940Z,34.65
2023-02-12T21:22:29.135Z,31.88
2023-02-12T21:24:57.446Z,34.25
2023-02-12T21:27:25.510Z,31.98
2023-02-12T21:29:53.420Z,30.20
2023-02-12T21:32:21.458Z,32.70
2023-02-12T21:34:49.532Z,29.33
2023-02-12T21:37:17.474Z,34.15
2023-02-12T21:39:45.434Z,30.08
2023-02-12T21:42:13.335Z,29.23
2023-02-12T21:44:41.179Z,30.63
2023-02-12T21:47:09.220Z,32.00
2023-02-12T21:49:36.962Z,30.88
2023-02-12T21:52:06.700Z,30.40
2023-02-12T21:54:34.789Z,28.65
2023-02-12T21:57:02.604Z,30.27
2023-02-12T21:59:32.331Z,30.40
2023-02-12T22:02:03.696Z,34.58
2023-02-12T22:04:31.601Z,35.92
2023-02-12T22:07:03.529Z,32.35
2023-02-12T22:09:32.083Z,31.13
2023-02-12T22:12:00.131Z,36.33
2023-02-12T22:14:27.995Z,35.28
2023-02-12T22:16:56.088Z,31.98
2023-02-12T22:19:23.956Z,31.63
2023-02-12T22:21:52.074Z,27.58
2023-02-12T22:24:20.091Z,31.48
2023-02-12T22:26:48.000Z,30.52
2023-02-12T22:29:16.430Z,34.20
2023-02-12T22:31:45.392Z,27.35
2023-02-12T22:34:14.959Z,26.33
2023-02-12T22:36:43.156Z,28.10
2023-02-12T22:39:13.040Z,21.98
2023-02-12T22:41:42.444Z,25.05
2023-02-12T22:44:11.383Z,23.73
2023-02-12T22:46:39.347Z,24.08
2023-02-12T22:49:07.171Z,22.67
2023-02-12T22:51:36.835Z,22.65
2023-02-12T22:54:06.214Z,20.45
2023-02-12T22:56:34.350Z,22.27
2023-02-12T22:59:02.972Z,21.27
2023-02-12T23:01:31.409Z,24.08
2023-02-12T23:03:59.487Z,22.05
2023-02-12T23:06:29.274Z,20.13
2023-02-12T23:08:59.094Z,19.90
2023-02-12T23:11:28.280Z,16.60
2023-02-12T23:13:56.386Z,15.65
2023-02-12T23:16:24.437Z,18.40
2023-02-12T23:18:56.526Z,18.05
2023-02-12T23:21:24.845Z,16.95
2023-02-12T23:23:54.039Z,18.77
2023-02-12T23:26:21.981Z,16.38
2023-02-12T23:28:49.783Z,21.05
2023-02-12T23:31:18.062Z,16.13
2023-02-12T23:33:45.947Z,14.70
2023-02-12T23:36:13.941Z,16.80
2023-02-12T23:38:42.032Z,13.88
2023-02-12T23:41:09.880Z,14.35
2023-02-12T23:43:37.763Z,15.57
2023-02-12T23:46:05.754Z,14.27
2023-02-12T23:48:33.810Z,15.18
2023-02-12T23:51:01.714Z,15.02
2023-02-12T23:53:32.273Z,12.18
2023-02-12T23:56:00.204Z,12.02
2023-02-12T23:58:28.194Z,11.88
